createdAt,value
2022-10-13T00:01:19.659Z,86.77
2022-10-13T00:04:07.386Z,86.18
2022-10-13T00:06:55.271Z,86.42
2022-10-13T00:09:46.728Z,86.24
2022-10-13T00:12:38.755Z,86.48
2022-10-13T00:15:28.873Z,86.41
2022-10-13T00:18:16.967Z,86.57
2022-10-13T00:21:10.697Z,86.97
2022-10-13T00:23:58.417Z,86.81
2022-10-13T00:26:46.311Z,86.69
2022-10-13T00:29:39.738Z,86.81
2022-10-13T00:32:27.328Z,86.83
2022-10-13T00:35:15.338Z,86.97
2022-10-13T00:38:02.993Z,86.95
2022-10-13T00:40:55.804Z,87.20
2022-10-13T00:43:57.869Z,86.72
2022-10-13T00:46:45.751Z,86.76
2022-10-13T00:49:33.776Z,86.63
2022-10-13T00:52:23.342Z,87.08
2022-10-13T00:55:13.910Z,86.72
2022-10-13T00:58:05.553Z,86.66
2022-10-13T01:00:53.854Z,86.82
2022-10-13T01:03:41.911Z,86.57
2022-10-13T01:06:30.437Z,86.75
2022-10-13T01:09:18.322Z,86.42
2022-10-13T01:12:26.665Z,86.38
2022-10-13T01:15:32.504Z,86.48
2022-10-13T01:18:41.860Z,86.46
2022-10-13T01:21:55.525Z,86.47
2022-10-13T01:24:58.434Z,86.51
2022-10-13T01:27:59.162Z,86.38
2022-10-13T01:31:32.956Z,86.25
2022-10-13T01:34:34.563Z,86.45
2022-10-13T01:37:34.650Z,86.73
2022-10-13T01:40:30.535Z,86.43
2022-10-13T01:43:36.938Z,86.16
2022-10-13T01:46:31.024Z,86.39
2022-10-13T01:49:24.581Z,86.61
2022-10-13T01:52:17.631Z,86.58
2022-10-13T01:55:12.061Z,86.44
2022-10-13T01:57:59.550Z,86.15
2022-10-13T02:01:15.231Z,86.40
2022-10-13T02:04:26.238Z,86.42
2022-10-13T02:07:31.658Z,86.48
2022-10-13T02:10:45.623Z,86.20
2022-10-13T02:13:36.819Z,85.98
2022-10-13T02:16:39.471Z,86.00
2022-10-13T02:19:28.894Z,85.93
2022-10-13T02:22:17.891Z,86.00
2022-10-13T02:25:08.057Z,85.53
2022-10-13T02:27:59.906Z,85.37
2022-10-13T02:30:51.907Z,85.34
2022-10-13T02:33:39.519Z,85.32
2022-10-13T02:36:27.121Z,85.31
2022-10-13T02:39:15.622Z,85.06
2022-10-13T02:42:03.615Z,85.20
2022-10-13T02:44:51.243Z,85.30
2022-10-13T02:47:39.251Z,85.10
2022-10-13T02:50:27.736Z,84.92
2022-10-13T02:53:17.359Z,84.90
2022-10-13T02:56:05.996Z,85.60
2022-10-13T02:58:55.337Z,85.43
2022-10-13T03:01:44.735Z,85.44
2022-10-13T03:04:32.303Z,85.23
2022-10-13T03:07:20.123Z,85.54
2022-10-13T03:10:08.300Z,85.51
2022-10-13T03:12:56.242Z,85.55
2022-10-13T03:15:43.861Z,85.79
2022-10-13T03:18:32.061Z,85.68
2022-10-13T03:21:20.495Z,85.13
2022-10-13T03:24:08.378Z,84.75
2022-10-13T03:26:55.823Z,84.34
2022-10-13T03:29:43.882Z,84.18
2022-10-13T03:32:31.924Z,84.37
2022-10-13T03:35:19.714Z,84.32
2022-10-13T03:38:07.842Z,84.39
2022-10-13T03:40:55.691Z,84.26
2022-10-13T03:43:45.509Z,84.10
2022-10-13T03:46:33.157Z,84.04
2022-10-13T03:49:21.154Z,84.05
2022-10-13T03:52:09.159Z,84.07
2022-10-13T03:54:56.880Z,84.18
2022-10-13T03:57:44.672Z,83.87
2022-10-13T04:00:32.567Z,83.72
2022-10-13T04:03:20.667Z,83.94
2022-10-13T04:06:08.462Z,83.70
2022-10-13T04:08:56.801Z,83.85
2022-10-13T04:11:44.375Z,83.80
2022-10-13T04:14:31.750Z,84.06
2022-10-13T04:17:22.973Z,84.20
2022-10-13T04:20:12.278Z,84.32
2022-10-13T04:23:00.199Z,84.20
2022-10-13T04:25:48.111Z,84.26
2022-10-13T04:28:36.168Z,84.02
2022-10-13T04:31:25.396Z,84.14
2022-10-13T04:34:12.852Z,84.20
2022-10-13T04:37:00.858Z,84.17
2022-10-13T04:39:48.730Z,84.30
2022-10-13T04:42:36.526Z,84.43
2022-10-13T04:45:24.254Z,84.19
2022-10-13T04:48:12.157Z,84.35
2022-10-13T04:51:09.141Z,84.32
2022-10-13T04:53:59.455Z,84.19
2022-10-13T04:56:47.283Z,84.04
2022-10-13T04:59:34.934Z,84.42
2022-10-13T05:02:22.865Z,84.48
2022-10-13T05:05:11.278Z,84.43
2022-10-13T05:08:01.186Z,84.39
2022-10-13T05:11:02.821Z,85.11
2022-10-13T05:13:50.454Z,85.11
2022-10-13T05:16:38.092Z,85.32
2022-10-13T05:19:25.983Z,85.44
2022-10-13T05:22:13.927Z,85.72
2022-10-13T05:25:02.258Z,85.58
2022-10-13T05:27:50.176Z,85.51
2022-10-13T05:30:37.989Z,85.77
2022-10-13T05:33:25.991Z,85.82
2022-10-13T05:36:21.567Z,85.92
2022-10-13T05:39:13.291Z,86.11
2022-10-13T05:42:00.686Z,86.07
2022-10-13T05:44:48.555Z,86.07
2022-10-13T05:47:36.659Z,85.83
2022-10-13T05:50:25.019Z,85.52
2022-10-13T05:53:12.923Z,85.52
2022-10-13T05:56:08.671Z,85.41
2022-10-13T05:59:04.773Z,85.41
2022-10-13T06:01:52.961Z,85.16
2022-10-13T06:04:49.201Z,84.98
2022-10-13T06:07:37.033Z,84.80
2022-10-13T06:10:25.907Z,84.33
2022-10-13T06:13:13.533Z,84.36
2022-10-13T06:16:01.345Z,83.97
2022-10-13T06:18:49.331Z,83.32
2022-10-13T06:21:39.292Z,83.55
2022-10-13T06:24:27.035Z,83.04
2022-10-13T06:27:15.025Z,82.38
2022-10-13T06:30:03.430Z,82.28
2022-10-13T06:32:51.125Z,82.22
2022-10-13T06:35:38.911Z,81.73
2022-10-13T06:38:27.191Z,81.34
2022-10-13T06:41:15.279Z,80.44
2022-10-13T06:44:03.238Z,79.94
2022-10-13T06:46:51.140Z,79.49
2022-10-13T06:49:39.828Z,77.87
2022-10-13T06:52:31.566Z,75.17
2022-10-13T06:55:20.291Z,72.92
2022-10-13T06:58:08.088Z,67.53
2022-10-13T07:00:56.175Z,58.75
2022-10-13T07:03:43.896Z,54.15
2022-10-13T07:06:31.759Z,50.13
2022-10-13T07:09:20.528Z,47.27
2022-10-13T07:12:08.424Z,43.52
2022-10-13T07:14:55.743Z,42.51
2022-10-13T07:17:43.418Z,40.75
2022-10-13T07:20:31.347Z,39.02
2022-10-13T07:23:20.242Z,38.03
2022-10-13T07:26:14.658Z,37.23
2022-10-13T07:29:02.346Z,36.98
2022-10-13T07:31:50.167Z,36.02
2022-10-13T07:34:38.126Z,35.56
2022-10-13T07:37:26.477Z,34.36
2022-10-13T07:40:14.226Z,33.79
2022-10-13T07:43:02.957Z,32.15
2022-10-13T07:45:50.376Z,32.20
2022-10-13T07:48:41.297Z,32.08
2022-10-13T07:51:28.939Z,31.77
2022-10-13T07:54:21.594Z,31.86
2022-10-13T07:57:11.500Z,31.41
2022-10-13T07:59:59.258Z,30.26
2022-10-13T08:02:50.867Z,29.96
2022-10-13T08:05:39.377Z,30.10
2022-10-13T08:08:28.647Z,30.34
2022-10-13T08:11:17.699Z,30.23
2022-10-13T08:14:05.481Z,29.47
2022-10-13T08:16:53.810Z,28.96
2022-10-13T08:19:41.567Z,28.90
2022-10-13T08:22:29.728Z,28.93
2022-10-13T08:25:17.785Z,28.85
2022-10-13T08:28:17.452Z,29.65
2022-10-13T08:31:05.474Z,29.73
2022-10-13T08:33:53.329Z,28.95
2022-10-13T08:36:40.784Z,28.78
2022-10-13T08:39:29.465Z,28.19
2022-10-13T08:42:22.375Z,28.01
2022-10-13T08:45:40.293Z,27.90
2022-10-13T08:48:42.616Z,27.88
2022-10-13T08:51:30.444Z,27.99
2022-10-13T08:54:21.882Z,28.72
2022-10-13T08:57:11.142Z,28.55
2022-10-13T08:59:58.973Z,28.52
2022-10-13T09:02:47.181Z,28.30
2022-10-13T09:05:48.915Z,28.95
2022-10-13T09:08:48.894Z,28.57
2022-10-13T09:11:45.708Z,28.67
2022-10-13T09:14:40.415Z,28.48
2022-10-13T09:17:29.983Z,28.50
2022-10-13T09:20:29.192Z,28.76
2022-10-13T09:23:23.217Z,28.22
2022-10-13T09:26:22.285Z,28.49
2022-10-13T09:29:18.448Z,27.70
2022-10-13T09:32:26.287Z,27.41
2022-10-13T09:35:23.320Z,27.46
2022-10-13T09:38:15.222Z,27.57
2022-10-13T09:41:09.272Z,27.45
2022-10-13T09:44:11.421Z,27.17
2022-10-13T09:47:04.276Z,27.09
2022-10-13T09:50:25.156Z,27.30
2022-10-13T09:53:26.310Z,26.26
2022-10-13T09:56:28.970Z,26.26
2022-10-13T09:59:36.874Z,25.56
2022-10-13T10:02:34.856Z,25.89
2022-10-13T10:05:58.223Z,26.01
2022-10-13T10:09:23.558Z,26.27
2022-10-13T10:12:24.248Z,25.96
2022-10-13T10:15:26.348Z,25.77
2022-10-13T10:18:25.393Z,25.40
2022-10-13T10:22:33.793Z,25.33
2022-10-13T10:26:05.666Z,25.95
2022-10-13T10:29:17.156Z,25.62
2022-10-13T10:32:33.484Z,25.70
2022-10-13T10:35:44.519Z,26.55
2022-10-13T10:38:38.875Z,27.10
2022-10-13T10:41:45.049Z,27.15
2022-10-13T10:44:42.808Z,27.03
2022-10-13T10:47:42.122Z,27.23
2022-10-13T10:50:32.060Z,27.17
2022-10-13T10:53:57.395Z,27.68
2022-10-13T10:56:55.834Z,27.26
2022-10-13T11:00:05.086Z,27.32
2022-10-13T11:03:30.638Z,27.67
2022-10-13T11:06:32.346Z,28.08
2022-10-13T11:09:42.022Z,28.90
2022-10-13T11:12:53.132Z,28.80
2022-10-13T11:15:46.545Z,28.96
2022-10-13T11:19:06.182Z,28.82
2022-10-13T11:21:54.287Z,29.96
2022-10-13T11:24:42.113Z,30.78
2022-10-13T11:27:41.898Z,31.30
2022-10-13T11:30:48.350Z,31.98
2022-10-13T11:33:53.714Z,32.58
2022-10-13T11:36:51.871Z,32.87
2022-10-13T11:40:34.250Z,32.89
2022-10-13T11:43:27.644Z,33.25
2022-10-13T11:46:33.390Z,33.80
2022-10-13T11:49:42.499Z,34.11
2022-10-13T11:53:24.524Z,33.92
2022-10-13T11:56:54.758Z,34.44
2022-10-13T11:59:47.152Z,34.59
2022-10-13T12:02:34.619Z,34.71
2022-10-13T12:05:27.036Z,35.29
2022-10-13T12:08:15.906Z,35.83
2022-10-13T12:11:07.691Z,36.20
2022-10-13T12:13:57.010Z,36.71
2022-10-13T12:16:59.095Z,37.56
2022-10-13T12:19:46.510Z,38.12
2022-10-13T12:22:39.324Z,38.67
2022-10-13T12:25:33.773Z,38.91
2022-10-13T12:28:21.784Z,39.00
2022-10-13T12:31:38.319Z,39.44
2022-10-13T12:34:33.474Z,40.35
2022-10-13T12:37:34.130Z,40.64
2022-10-13T12:40:22.940Z,40.92
2022-10-13T12:43:25.251Z,41.68
2022-10-13T12:46:12.828Z,42.31
2022-10-13T12:49:12.562Z,42.65
2022-10-13T12:52:16.298Z,43.43
2022-10-13T12:55:04.605Z,43.90
2022-10-13T12:57:53.024Z,43.96
2022-10-13T13:00:41.336Z,44.83
2022-10-13T13:03:30.552Z,45.14
2022-10-13T13:06:17.987Z,45.32
2022-10-13T13:09:21.116Z,45.66
2022-10-13T13:12:11.666Z,46.12
2022-10-13T13:15:21.564Z,46.20
2022-10-13T13:18:27.558Z,46.54
2022-10-13T13:21:19.526Z,46.77
2022-10-13T13:24:16.256Z,47.11
2022-10-13T13:27:31.345Z,47.10
2022-10-13T13:30:23.247Z,47.34
2022-10-13T13:35:59.437Z,47.75
2022-10-13T13:38:48.663Z,47.94
2022-10-13T13:41:36.313Z,48.32
2022-10-13T13:44:24.421Z,48.20
2022-10-13T13:47:20.671Z,48.47
2022-10-13T13:50:25.348Z,48.81
2022-10-13T13:53:18.799Z,49.10
2022-10-13T13:56:17.326Z,49.48
2022-10-13T13:59:04.899Z,49.75
2022-10-13T14:01:52.557Z,49.61
2022-10-13T14:04:43.348Z,49.43
2022-10-13T14:07:31.643Z,49.76
2022-10-13T14:10:19.302Z,49.95
2022-10-13T14:13:06.973Z,50.59
2022-10-13T14:16:00.205Z,50.93
2022-10-13T14:18:47.827Z,51.63
2022-10-13T14:21:36.570Z,52.19
2022-10-13T14:24:25.366Z,52.32
2022-10-13T14:27:12.832Z,52.76
2022-10-13T14:30:01.638Z,52.94
2022-10-13T14:32:49.470Z,53.48
2022-10-13T14:35:37.474Z,53.48
2022-10-13T14:38:25.695Z,53.94
2022-10-13T14:41:15.294Z,54.11
2022-10-13T14:44:03.209Z,54.41
2022-10-13T14:46:51.161Z,54.63
2022-10-13T14:49:38.922Z,54.70
2022-10-13T14:52:27.035Z,54.84
2022-10-13T14:55:15.114Z,54.94
2022-10-13T14:58:03.749Z,55.05
2022-10-13T15:00:52.118Z,55.09
2022-10-13T15:03:39.995Z,55.49
2022-10-13T15:06:27.828Z,55.58
2022-10-13T15:09:15.198Z,55.99
2022-10-13T15:12:03.058Z,56.15
2022-10-13T15:14:51.387Z,56.44
2022-10-13T15:17:39.163Z,56.51
2022-10-13T15:20:26.812Z,56.78
2022-10-13T15:23:16.223Z,56.72
2022-10-13T15:26:04.788Z,57.04
2022-10-13T15:28:53.415Z,57.45
2022-10-13T15:31:40.977Z,57.67
2022-10-13T15:34:28.672Z,57.92
2022-10-13T15:37:16.341Z,57.95
2022-10-13T15:40:04.921Z,58.18
2022-10-13T15:42:54.195Z,58.25
2022-10-13T15:45:42.832Z,58.44
2022-10-13T15:48:39.588Z,58.61
2022-10-13T15:51:27.882Z,58.77
2022-10-13T15:54:17.189Z,58.80
2022-10-13T15:57:04.715Z,59.04
2022-10-13T15:59:53.717Z,59.04
2022-10-13T16:02:43.769Z,59.28
2022-10-13T16:05:32.032Z,58.97
2022-10-13T16:08:19.638Z,59.51
2022-10-13T16:11:13.983Z,59.64
2022-10-13T16:14:06.130Z,59.50
2022-10-13T16:16:58.518Z,59.53
2022-10-13T16:19:58.106Z,60.19
2022-10-13T16:22:50.378Z,60.05
2022-10-13T16:25:39.820Z,60.56
2022-10-13T16:28:27.605Z,60.66
2022-10-13T16:31:17.337Z,60.90
2022-10-13T16:34:07.963Z,61.20
2022-10-13T16:37:03.283Z,61.52
2022-10-13T16:39:53.969Z,61.36
2022-10-13T16:42:43.438Z,61.48
2022-10-13T16:45:55.057Z,61.72
2022-10-13T16:48:38.270Z,61.69
2022-10-13T16:51:28.918Z,61.74
2022-10-13T16:54:17.666Z,61.85
2022-10-13T16:57:05.371Z,61.95
2022-10-13T16:59:54.956Z,61.96
2022-10-13T17:02:46.974Z,62.12
2022-10-13T17:05:36.234Z,62.13
2022-10-13T17:08:24.741Z,62.07
2022-10-13T17:11:20.288Z,62.41
2022-10-13T17:14:09.424Z,62.41
2022-10-13T17:16:58.171Z,62.36
2022-10-13T17:19:46.003Z,62.57
2022-10-13T17:22:34.147Z,62.79
2022-10-13T17:25:21.906Z,62.80
2022-10-13T17:28:09.825Z,62.91
2022-10-13T17:31:09.535Z,63.08
2022-10-13T17:33:57.768Z,63.31
2022-10-13T17:36:52.341Z,63.22
2022-10-13T17:43:00.576Z,63.55
2022-10-13T17:45:48.155Z,63.91
2022-10-13T17:48:36.150Z,64.10
2022-10-13T17:51:34.738Z,64.24
2022-10-13T17:54:26.177Z,64.77
2022-10-13T17:57:24.958Z,64.59
2022-10-13T18:00:14.012Z,64.87
2022-10-13T18:03:02.591Z,65.33
2022-10-13T18:05:55.343Z,65.69
2022-10-13T18:08:43.737Z,65.61
2022-10-13T18:11:58.079Z,65.21
2022-10-13T18:14:46.198Z,65.19
2022-10-13T18:17:33.893Z,65.63
2022-10-13T18:20:21.994Z,65.76
2022-10-13T18:23:12.688Z,65.83
2022-10-13T18:26:21.605Z,66.51
2022-10-13T18:29:12.322Z,66.58
2022-10-13T18:31:59.749Z,66.67
2022-10-13T18:34:47.400Z,66.74
2022-10-13T18:37:37.179Z,66.88
2022-10-13T18:40:50.663Z,66.89
2022-10-13T18:43:38.194Z,66.88
2022-10-13T18:46:26.275Z,67.27
2022-10-13T18:49:15.391Z,67.08
2022-10-13T18:52:05.004Z,67.23
2022-10-13T18:54:54.870Z,67.50
2022-10-13T18:57:43.027Z,67.62
2022-10-13T19:00:30.911Z,67.59
2022-10-13T19:03:18.818Z,67.90
2022-10-13T19:06:10.018Z,68.38
2022-10-13T19:09:06.771Z,68.35
2022-10-13T19:12:00.924Z,68.63
2022-10-13T19:14:49.397Z,68.55
2022-10-13T19:17:37.832Z,69.13
2022-10-13T19:20:35.822Z,69.01
2022-10-13T19:23:27.932Z,69.23
2022-10-13T19:26:24.057Z,69.32
2022-10-13T19:29:14.041Z,69.78
2022-10-13T19:32:01.965Z,69.88
2022-10-13T19:34:49.965Z,70.31
2022-10-13T19:37:39.188Z,70.35
2022-10-13T19:40:33.021Z,70.54
2022-10-13T19:43:22.542Z,70.58
2022-10-13T19:46:10.959Z,70.64
2022-10-13T19:48:58.476Z,71.08
2022-10-13T19:51:49.348Z,71.15
2022-10-13T19:54:37.282Z,71.23
2022-10-13T19:57:25.140Z,70.95
2022-10-13T20:00:14.210Z,71.09
2022-10-13T20:03:03.937Z,71.30
2022-10-13T20:05:51.552Z,71.23
2022-10-13T20:08:39.591Z,71.23
2022-10-13T20:11:26.955Z,71.40
2022-10-13T20:14:15.546Z,71.33
2022-10-13T20:17:03.058Z,71.36
2022-10-13T20:19:50.869Z,71.40
2022-10-13T20:22:39.855Z,71.18
2022-10-13T20:25:27.713Z,71.27
2022-10-13T20:28:15.562Z,71.67
2022-10-13T20:31:05.273Z,71.76
2022-10-13T20:33:58.552Z,71.98
2022-10-13T20:36:51.437Z,72.17
2022-10-13T20:39:39.770Z,72.61
2022-10-13T20:42:27.714Z,72.50
2022-10-13T20:45:15.551Z,72.52
2022-10-13T20:48:03.585Z,72.34
2022-10-13T20:50:51.772Z,72.19
2022-10-13T20:53:43.010Z,72.23
2022-10-13T20:56:30.730Z,71.92
2022-10-13T20:59:18.701Z,72.00
2022-10-13T21:02:06.697Z,71.92
2022-10-13T21:04:54.653Z,71.64
2022-10-13T21:07:42.640Z,71.46
2022-10-13T21:10:30.062Z,71.30
2022-10-13T21:13:18.335Z,71.18
2022-10-13T21:16:14.811Z,71.07
2022-10-13T21:19:03.131Z,71.17
2022-10-13T21:21:50.998Z,71.04
2022-10-13T21:24:39.148Z,70.95
2022-10-13T21:27:26.763Z,70.75
2022-10-13T21:30:14.418Z,70.68
2022-10-13T21:33:02.271Z,70.96
2022-10-13T21:35:50.083Z,71.06
2022-10-13T21:38:39.924Z,71.47
2022-10-13T21:41:28.914Z,71.38
2022-10-13T21:44:17.159Z,71.84
2022-10-13T21:47:04.887Z,71.52
2022-10-13T21:49:53.596Z,71.59
2022-10-13T21:52:41.397Z,71.98
2022-10-13T21:55:29.260Z,71.95
2022-10-13T21:58:17.019Z,71.97
2022-10-13T22:01:06.093Z,72.23
2022-10-13T22:03:56.805Z,72.35
2022-10-13T22:06:47.047Z,72.33
2022-10-13T22:09:34.437Z,72.76
2022-10-13T22:12:22.569Z,72.60
2022-10-13T22:15:41.515Z,72.80
2022-10-13T22:18:32.881Z,72.62
2022-10-13T22:21:29.093Z,72.97
2022-10-13T22:24:21.416Z,72.77
2022-10-13T22:27:12.916Z,72.77
2022-10-13T22:30:01.617Z,72.87
2022-10-13T22:32:49.155Z,73.17
2022-10-13T22:35:46.911Z,73.06
2022-10-13T22:38:35.122Z,72.96
2022-10-13T22:41:24.772Z,73.15
2022-10-13T22:44:13.533Z,73.34
2022-10-13T22:47:00.970Z,73.26
2022-10-13T22:49:48.257Z,73.50
2022-10-13T22:52:37.492Z,73.66
2022-10-13T22:55:24.809Z,74.00
2022-10-13T22:58:12.821Z,74.03
2022-10-13T23:01:09.538Z,74.38
2022-10-13T23:03:58.434Z,74.34
2022-10-13T23:06:45.966Z,74.51
2022-10-13T23:09:35.764Z,74.91
2022-10-13T23:12:22.958Z,74.81
2022-10-13T23:15:11.232Z,74.96
2022-10-13T23:18:01.332Z,75.12
2022-10-13T23:20:52.013Z,75.15
2022-10-13T23:23:42.562Z,75.05
2022-10-13T23:26:32.461Z,74.93
2022-10-13T23:29:19.538Z,74.85
2022-10-13T23:32:09.762Z,75.05
2022-10-13T23:34:57.770Z,74.73
2022-10-13T23:37:52.945Z,74.88
2022-10-13T23:40:40.637Z,74.88
2022-10-13T23:43:30.898Z,75.15
2022-10-13T23:46:18.526Z,75.23
2022-10-13T23:49:06.158Z,75.46
2022-10-13T23:51:53.972Z,75.45
2022-10-13T23:54:42.002Z,75.70
2022-10-13T23:57:30.519Z,75.77
